sensor_id;sensor_type;location;lat;lon;timestamp;temperature;humidity
27200;DHT22;14714;48.106;11.546;2023-03-01T00:02:07;1.80;99.90
27200;DHT22;14714;48.106;11.546;2023-03-01T00:04:34;1.80;99.90
27200;DHT22;14714;48.106;11.546;2023-03-01T00:07:02;1.70;99.90
27200;DHT22;14714;48.106;11.546;2023-03-01T00:09:28;1.70;99.90
27200;DHT22;14714;48.106;11.546;2023-03-01T00:11:55;1.70;99.90
27200;DHT22;14714;48.106;11.546;2023-03-01T00:14:21;1.70;99.90
27200;DHT22;14714;48.106;11.546;2023-03-01T00:16:48;1.70;99.90
27200;DHT22;14714;48.106;11.546;2023-03-01T00:19:20;1.70;99.90
27200;DHT22;14714;48.106;11.546;2023-03-01T00:21:48;1.70;99.90
27200;DHT22;14714;48.106;11.546;2023-03-01T00:24:15;1.70;99.90
27200;DHT22;14714;48.106;11.546;2023-03-01T00:26:42;1.70;99.90
27200;DHT22;14714;48.106;11.546;2023-03-01T00:29:08;1.70;99.90
27200;DHT22;14714;48.106;11.546;2023-03-01T00:31:35;1.70;99.90
27200;DHT22;14714;48.106;11.546;2023-03-01T00:34:02;1.70;99.90
27200;DHT22;14714;48.106;11.546;2023-03-01T00:36:34;1.70;99.90
27200;DHT22;14714;48.106;11.546;2023-03-01T00:39:01;1.70;99.90
27200;DHT22;14714;48.106;11.546;2023-03-01T00:41:29;1.70;99.90
27200;DHT22;14714;48.106;11.546;2023-03-01T00:43:56;1.70;99.90
27200;DHT22;14714;48.106;11.546;2023-03-01T00:46:24;1.70;99.90
27200;DHT22;14714;48.106;11.546;2023-03-01T00:48:51;1.70;99.90
27200;DHT22;14714;48.106;11.546;2023-03-01T00:51:19;1.70;99.90
27200;DHT22;14714;48.106;11.546;2023-03-01T00:53:46;1.60;99.90
27200;DHT22;14714;48.106;11.546;2023-03-01T00:56:14;1.70;99.90
27200;DHT22;14714;48.106;11.546;2023-03-01T00:58:41;1.70;99.90
27200;DHT22;14714;48.106;11.546;2023-03-01T01:01:09;1.70;99.90
27200;DHT22;14714;48.106;11.546;2023-03-01T01:03:50;1.70;99.90
27200;DHT22;14714;48.106;11.546;2023-03-01T01:08:47;1.70;99.90
27200;DHT22;14714;48.106;11.546;2023-03-01T01:11:14;1.60;99.90
27200;DHT22;14714;48.106;11.546;2023-03-01T01:13:41;1.60;99.90
27200;DHT22;14714;48.106;11.546;2023-03-01T01:16:09;1.60;99.90
27200;DHT22;14714;48.106;11.546;2023-03-01T01:18:36;1.60;99.90
27200;DHT22;14714;48.106;11.546;2023-03-01T01:21:07;1.60;99.90
27200;DHT22;14714;48.106;11.546;2023-03-01T01:23:34;1.60;99.90
27200;DHT22;14714;48.106;11.546;2023-03-01T01:26:08;1.60;99.90
27200;DHT22;14714;48.106;11.546;2023-03-01T01:28:34;1.60;99.90
27200;DHT22;14714;48.106;11.546;2023-03-01T01:31:02;1.60;99.90
27200;DHT22;14714;48.106;11.546;2023-03-01T01:33:28;1.60;99.90
27200;DHT22;14714;48.106;11.546;2023-03-01T01:35:55;1.50;99.90
27200;DHT22;14714;48.106;11.546;2023-03-01T01:38:22;1.60;99.90
27200;DHT22;14714;48.106;11.546;2023-03-01T01:40:49;1.60;99.90
27200;DHT22;14714;48.106;11.546;2023-03-01T01:43:18;1.60;99.90
27200;DHT22;14714;48.106;11.546;2023-03-01T01:45:45;1.60;99.90
27200;DHT22;14714;48.106;11.546;2023-03-01T01:48:13;1.60;99.90
27200;DHT22;14714;48.106;11.546;2023-03-01T01:50:41;1.60;99.90
27200;DHT22;14714;48.106;11.546;2023-03-01T01:53:12;1.60;99.90
27200;DHT22;14714;48.106;11.546;2023-03-01T01:55:45;1.60;99.90
27200;DHT22;14714;48.106;11.546;2023-03-01T01:58:14;1.50;99.90
27200;DHT22;14714;48.106;11.546;2023-03-01T02:00:42;1.60;99.90
27200;DHT22;14714;48.106;11.546;2023-03-01T02:03:17;1.50;99.90
27200;DHT22;14714;48.106;11.546;2023-03-01T02:08:21;1.50;99.90
27200;DHT22;14714;48.106;11.546;2023-03-01T02:10:49;1.50;99.90
27200;DHT22;14714;48.106;11.546;2023-03-01T02:13:16;1.40;99.90
27200;DHT22;14714;48.106;11.546;2023-03-01T02:15:43;1.40;99.90
27200;DHT22;14714;48.106;11.546;2023-03-01T02:18:11;1.40;99.90
27200;DHT22;14714;48.106;11.546;2023-03-01T02:23:12;1.40;99.90
27200;DHT22;14714;48.106;11.546;2023-03-01T02:25:44;1.40;99.90
27200;DHT22;14714;48.106;11.546;2023-03-01T02:30:43;1.40;99.90
27200;DHT22;14714;48.106;11.546;2023-03-01T02:33:29;1.40;99.90
27200;DHT22;14714;48.106;11.546;2023-03-01T02:36:10;1.30;99.90
27200;DHT22;14714;48.106;11.546;2023-03-01T02:38:40;1.30;99.90
27200;DHT22;14714;48.106;11.546;2023-03-01T02:41:07;1.30;99.90
27200;DHT22;14714;48.106;11.546;2023-03-01T02:43:34;1.40;99.90
27200;DHT22;14714;48.106;11.546;2023-03-01T02:46:05;1.40;99.90
27200;DHT22;14714;48.106;11.546;2023-03-01T02:48:39;1.30;99.90
27200;DHT22;14714;48.106;11.546;2023-03-01T02:53:41;1.40;99.90
27200;DHT22;14714;48.106;11.546;2023-03-01T02:56:11;1.40;99.90
27200;DHT22;14714;48.106;11.546;2023-03-01T02:58:42;1.30;99.90
27200;DHT22;14714;48.106;11.546;2023-03-01T03:01:11;1.30;99.90
27200;DHT22;14714;48.106;11.546;2023-03-01T03:03:40;1.40;99.90
27200;DHT22;14714;48.106;11.546;2023-03-01T03:06:07;1.30;99.90
27200;DHT22;14714;48.106;11.546;2023-03-01T03:08:33;1.30;99.90
27200;DHT22;14714;48.106;11.546;2023-03-01T03:11:00;1.30;99.90
27200;DHT22;14714;48.106;11.546;2023-03-01T03:13:27;1.30;99.90
27200;DHT22;14714;48.106;11.546;2023-03-01T03:15:55;1.30;99.90
27200;DHT22;14714;48.106;11.546;2023-03-01T03:18:23;1.20;99.90
27200;DHT22;14714;48.106;11.546;2023-03-01T03:20:52;1.20;99.90
27200;DHT22;14714;48.106;11.546;2023-03-01T03:23:20;1.20;99.90
27200;DHT22;14714;48.106;11.546;2023-03-01T03:25:48;1.20;99.90
27200;DHT22;14714;48.106;11.546;2023-03-01T03:28:14;1.20;99.90
27200;DHT22;14714;48.106;11.546;2023-03-01T03:30:42;1.20;99.90
27200;DHT22;14714;48.106;11.546;2023-03-01T03:33:10;1.20;99.90
27200;DHT22;14714;48.106;11.546;2023-03-01T03:35:46;1.20;99.90
27200;DHT22;14714;48.106;11.546;2023-03-01T03:38:14;1.20;99.90
27200;DHT22;14714;48.106;11.546;2023-03-01T03:40:48;1.30;99.90
27200;DHT22;14714;48.106;11.546;2023-03-01T03:43:19;1.30;99.90
27200;DHT22;14714;48.106;11.546;2023-03-01T03:45:46;1.20;99.90
27200;DHT22;14714;48.106;11.546;2023-03-01T03:48:13;1.20;99.90
27200;DHT22;14714;48.106;11.546;2023-03-01T03:50:40;1.20;99.90
27200;DHT22;14714;48.106;11.546;2023-03-01T03:53:11;1.20;99.90
27200;DHT22;14714;48.106;11.546;2023-03-01T03:55:38;1.20;99.90
27200;DHT22;14714;48.106;11.546;2023-03-01T03:58:07;1.20;99.90
27200;DHT22;14714;48.106;11.546;2023-03-01T04:00:34;1.20;99.90
27200;DHT22;14714;48.106;11.546;2023-03-01T04:03:02;1.10;99.90
27200;DHT22;14714;48.106;11.546;2023-03-01T04:05:29;1.10;99.90
27200;DHT22;14714;48.106;11.546;2023-03-01T04:07:55;1.10;99.90
27200;DHT22;14714;48.106;11.546;2023-03-01T04:10:29;1.00;99.90
27200;DHT22;14714;48.106;11.546;2023-03-01T04:12:56;1.00;99.90
27200;DHT22;14714;48.106;11.546;2023-03-01T04:15:23;1.00;99.90
27200;DHT22;14714;48.106;11.546;2023-03-01T04:17:51;1.00;99.90
27200;DHT22;14714;48.106;11.546;2023-03-01T04:20:23;0.90;99.90
27200;DHT22;14714;48.106;11.546;2023-03-01T04:22:56;0.90;99.90
27200;DHT22;14714;48.106;11.546;2023-03-01T04:25:37;0.90;99.90
27200;DHT22;14714;48.106;11.546;2023-03-01T04:28:04;0.90;99.90
27200;DHT22;14714;48.106;11.546;2023-03-01T04:30:30;0.90;99.90
27200;DHT22;14714;48.106;11.546;2023-03-01T04:33:05;0.90;99.90
27200;DHT22;14714;48.106;11.546;2023-03-01T04:35:32;0.90;99.90
27200;DHT22;14714;48.106;11.546;2023-03-01T04:38:01;0.90;99.90
27200;DHT22;14714;48.106;11.546;2023-03-01T04:40:27;0.80;99.90
27200;DHT22;14714;48.106;11.546;2023-03-01T04:42:54;0.80;99.90
27200;DHT22;14714;48.106;11.546;2023-03-01T04:45:21;0.80;99.90
27200;DHT22;14714;48.106;11.546;2023-03-01T04:47:48;0.80;99.90
27200;DHT22;14714;48.106;11.546;2023-03-01T04:50:16;0.80;99.90
27200;DHT22;14714;48.106;11.546;2023-03-01T04:52:46;0.80;99.90
27200;DHT22;14714;48.106;11.546;2023-03-01T04:55:13;0.80;99.90
27200;DHT22;14714;48.106;11.546;2023-03-01T04:57:40;0.80;99.90
27200;DHT22;14714;48.106;11.546;2023-03-01T05:00:08;0.80;99.90
27200;DHT22;14714;48.106;11.546;2023-03-01T05:02:53;0.70;99.90
27200;DHT22;14714;48.106;11.546;2023-03-01T05:05:25;0.70;99.90
27200;DHT22;14714;48.106;11.546;2023-03-01T05:07:53;0.70;99.90
27200;DHT22;14714;48.106;11.546;2023-03-01T05:10:20;0.60;99.90
27200;DHT22;14714;48.106;11.546;2023-03-01T05:12:47;0.60;99.90
27200;DHT22;14714;48.106;11.546;2023-03-01T05:15:13;0.70;99.90
27200;DHT22;14714;48.106;11.546;2023-03-01T05:17:40;0.60;99.90
27200;DHT22;14714;48.106;11.546;2023-03-01T05:20:07;0.60;99.90
27200;DHT22;14714;48.106;11.546;2023-03-01T05:22:35;0.60;99.90
27200;DHT22;14714;48.106;11.546;2023-03-01T05:25:02;0.60;99.90
27200;DHT22;14714;48.106;11.546;2023-03-01T05:27:29;0.50;99.90
27200;DHT22;14714;48.106;11.546;2023-03-01T05:29:56;0.50;99.90
27200;DHT22;14714;48.106;11.546;2023-03-01T05:32:22;0.50;99.90
27200;DHT22;14714;48.106;11.546;2023-03-01T05:34:49;0.40;99.90
27200;DHT22;14714;48.106;11.546;2023-03-01T05:37:18;0.40;99.90
27200;DHT22;14714;48.106;11.546;2023-03-01T05:39:46;0.40;99.90
27200;DHT22;14714;48.106;11.546;2023-03-01T05:42:16;0.40;99.90
27200;DHT22;14714;48.106;11.546;2023-03-01T05:44:43;0.40;99.90
27200;DHT22;14714;48.106;11.546;2023-03-01T05:47:09;0.30;99.90
27200;DHT22;14714;48.106;11.546;2023-03-01T05:49:36;0.30;99.90
27200;DHT22;14714;48.106;11.546;2023-03-01T05:52:05;0.30;99.90
27200;DHT22;14714;48.106;11.546;2023-03-01T05:54:32;0.30;99.90
27200;DHT22;14714;48.106;11.546;2023-03-01T05:56:59;0.30;99.90
27200;DHT22;14714;48.106;11.546;2023-03-01T05:59:26;0.30;99.90
27200;DHT22;14714;48.106;11.546;2023-03-01T06:01:52;0.30;99.90
27200;DHT22;14714;48.106;11.546;2023-03-01T06:04:19;0.30;99.90
27200;DHT22;14714;48.106;11.546;2023-03-01T06:06:47;0.30;99.90
27200;DHT22;14714;48.106;11.546;2023-03-01T06:09:14;0.30;99.90
27200;DHT22;14714;48.106;11.546;2023-03-01T06:11:40;0.30;99.90
27200;DHT22;14714;48.106;11.546;2023-03-01T06:14:07;0.30;99.90
27200;DHT22;14714;48.106;11.546;2023-03-01T06:16:34;0.20;99.90
27200;DHT22;14714;48.106;11.546;2023-03-01T06:19:00;0.20;99.90
27200;DHT22;14714;48.106;11.546;2023-03-01T06:21:27;0.20;99.90
27200;DHT22;14714;48.106;11.546;2023-03-01T06:23:54;0.20;99.90
27200;DHT22;14714;48.106;11.546;2023-03-01T06:26:20;0.20;99.90
27200;DHT22;14714;48.106;11.546;2023-03-01T06:28:47;0.20;99.90
27200;DHT22;14714;48.106;11.546;2023-03-01T06:31:14;0.20;99.90
27200;DHT22;14714;48.106;11.546;2023-03-01T06:33:40;0.20;99.90
27200;DHT22;14714;48.106;11.546;2023-03-01T06:36:07;0.10;99.90
27200;DHT22;14714;48.106;11.546;2023-03-01T06:38:34;0.10;99.90
27200;DHT22;14714;48.106;11.546;2023-03-01T06:41:01;0.10;99.90
27200;DHT22;14714;48.106;11.546;2023-03-01T06:43:28;0.10;99.90
27200;DHT22;14714;48.106;11.546;2023-03-01T06:45:55;0.10;99.90
27200;DHT22;14714;48.106;11.546;2023-03-01T06:48:21;0.10;99.90
27200;DHT22;14714;48.106;11.546;2023-03-01T06:50:48;0.10;99.90
27200;DHT22;14714;48.106;11.546;2023-03-01T06:53:15;0.10;99.90
27200;DHT22;14714;48.106;11.546;2023-03-01T06:55:41;0.10;99.90
27200;DHT22;14714;48.106;11.546;2023-03-01T06:58:08;0.10;99.90
27200;DHT22;14714;48.106;11.546;2023-03-01T07:00:35;0.20;99.90
27200;DHT22;14714;48.106;11.546;2023-03-01T07:03:01;0.20;99.90
27200;DHT22;14714;48.106;11.546;2023-03-01T07:05:29;0.20;99.90
27200;DHT22;14714;48.106;11.546;2023-03-01T07:07:56;0.20;99.90
27200;DHT22;14714;48.106;11.546;2023-03-01T07:10:23;0.20;99.90
27200;DHT22;14714;48.106;11.546;2023-03-01T07:12:50;0.20;99.90
27200;DHT22;14714;48.106;11.546;2023-03-01T07:15:16;0.20;99.90
27200;DHT22;14714;48.106;11.546;2023-03-01T07:17:43;0.20;99.90
27200;DHT22;14714;48.106;11.546;2023-03-01T07:20:11;0.20;99.90
27200;DHT22;14714;48.106;11.546;2023-03-01T07:22:39;0.20;99.90
27200;DHT22;14714;48.106;11.546;2023-03-01T07:25:06;0.20;99.90
27200;DHT22;14714;48.106;11.546;2023-03-01T07:27:32;0.30;99.90
27200;DHT22;14714;48.106;11.546;2023-03-01T07:29:59;0.30;99.90
27200;DHT22;14714;48.106;11.546;2023-03-01T07:32:25;0.40;99.90
27200;DHT22;14714;48.106;11.546;2023-03-01T07:34:52;0.40;99.90
27200;DHT22;14714;48.106;11.546;2023-03-01T07:37:19;0.50;99.90
27200;DHT22;14714;48.106;11.546;2023-03-01T07:39:46;0.50;99.90
27200;DHT22;14714;48.106;11.546;2023-03-01T07:42:12;0.50;99.90
27200;DHT22;14714;48.106;11.546;2023-03-01T07:44:39;0.60;99.90
27200;DHT22;14714;48.106;11.546;2023-03-01T07:47:05;0.60;99.90
27200;DHT22;14714;48.106;11.546;2023-03-01T07:49:32;0.60;99.90
27200;DHT22;14714;48.106;11.546;2023-03-01T07:51:59;0.60;99.90
27200;DHT22;14714;48.106;11.546;2023-03-01T07:54:25;0.60;99.90
27200;DHT22;14714;48.106;11.546;2023-03-01T07:56:52;0.70;99.90
27200;DHT22;14714;48.106;11.546;2023-03-01T07:59:21;0.70;99.90
27200;DHT22;14714;48.106;11.546;2023-03-01T08:01:47;0.80;99.90
27200;DHT22;14714;48.106;11.546;2023-03-01T08:04:14;0.80;99.90
27200;DHT22;14714;48.106;11.546;2023-03-01T08:06:41;0.90;99.90
27200;DHT22;14714;48.106;11.546;2023-03-01T08:09:07;1.00;99.90
27200;DHT22;14714;48.106;11.546;2023-03-01T08:11:34;1.00;99.90
27200;DHT22;14714;48.106;11.546;2023-03-01T08:14:01;1.10;99.90
27200;DHT22;14714;48.106;11.546;2023-03-01T08:16:28;1.10;99.90
27200;DHT22;14714;48.106;11.546;2023-03-01T08:18:55;1.10;99.90
27200;DHT22;14714;48.106;11.546;2023-03-01T08:21:25;1.10;99.90
27200;DHT22;14714;48.106;11.546;2023-03-01T08:23:52;1.20;99.90
27200;DHT22;14714;48.106;11.546;2023-03-01T08:26:19;1.30;99.90
27200;DHT22;14714;48.106;11.546;2023-03-01T08:28:47;1.40;99.90
27200;DHT22;14714;48.106;11.546;2023-03-01T08:31:18;1.40;99.90
27200;DHT22;14714;48.106;11.546;2023-03-01T08:33:47;1.60;99.90
27200;DHT22;14714;48.106;11.546;2023-03-01T08:36:17;1.60;99.90
27200;DHT22;14714;48.106;11.546;2023-03-01T08:38:44;1.70;99.90
27200;DHT22;14714;48.106;11.546;2023-03-01T08:41:10;1.70;99.90
27200;DHT22;14714;48.106;11.546;2023-03-01T08:43:37;1.70;99.90
27200;DHT22;14714;48.106;11.546;2023-03-01T08:46:04;1.80;99.90
27200;DHT22;14714;48.106;11.546;2023-03-01T08:48:30;1.80;99.90
27200;DHT22;14714;48.106;11.546;2023-03-01T08:51:06;1.90;99.90
27200;DHT22;14714;48.106;11.546;2023-03-01T08:53:32;2.00;99.90
27200;DHT22;14714;48.106;11.546;2023-03-01T08:56:00;2.10;99.90
27200;DHT22;14714;48.106;11.546;2023-03-01T08:58:26;2.10;99.90
27200;DHT22;14714;48.106;11.546;2023-03-01T09:00:53;2.00;99.90
27200;DHT22;14714;48.106;11.546;2023-03-01T09:03:19;2.00;99.90
27200;DHT22;14714;48.106;11.546;2023-03-01T09:05:46;2.10;99.90
27200;DHT22;14714;48.106;11.546;2023-03-01T09:08:13;2.10;99.90
27200;DHT22;14714;48.106;11.546;2023-03-01T09:10:39;2.10;99.90
27200;DHT22;14714;48.106;11.546;2023-03-01T09:13:06;2.20;99.90
27200;DHT22;14714;48.106;11.546;2023-03-01T09:15:33;2.30;99.90
27200;DHT22;14714;48.106;11.546;2023-03-01T09:17:59;2.40;99.90
27200;DHT22;14714;48.106;11.546;2023-03-01T09:20:26;2.50;99.90
27200;DHT22;14714;48.106;11.546;2023-03-01T09:22:53;2.60;99.90
27200;DHT22;14714;48.106;11.546;2023-03-01T09:25:19;2.70;99.90
27200;DHT22;14714;48.106;11.546;2023-03-01T09:27:46;3.00;99.90
27200;DHT22;14714;48.106;11.546;2023-03-01T09:30:13;3.10;99.90
27200;DHT22;14714;48.106;11.546;2023-03-01T09:32:39;3.30;99.90
27200;DHT22;14714;48.106;11.546;2023-03-01T09:35:09;3.30;99.90
27200;DHT22;14714;48.106;11.546;2023-03-01T09:37:35;3.20;99.90
27200;DHT22;14714;48.106;11.546;2023-03-01T09:40:04;3.20;99.90
27200;DHT22;14714;48.106;11.546;2023-03-01T09:42:35;3.10;99.90
27200;DHT22;14714;48.106;11.546;2023-03-01T09:45:06;3.00;99.90
27200;DHT22;14714;48.106;11.546;2023-03-01T09:47:37;3.00;99.90
27200;DHT22;14714;48.106;11.546;2023-03-01T09:52:36;3.10;99.90
27200;DHT22;14714;48.106;11.546;2023-03-01T09:55:15;3.20;99.90
27200;DHT22;14714;48.106;11.546;2023-03-01T10:00:20;3.20;99.90
27200;DHT22;14714;48.106;11.546;2023-03-01T10:02:52;3.20;99.90
27200;DHT22;14714;48.106;11.546;2023-03-01T10:05:27;3.20;99.90
27200;DHT22;14714;48.106;11.546;2023-03-01T10:10:43;3.20;99.90
27200;DHT22;14714;48.106;11.546;2023-03-01T10:15:44;3.40;99.90
27200;DHT22;14714;48.106;11.546;2023-03-01T10:18:19;3.40;99.90
27200;DHT22;14714;48.106;11.546;2023-03-01T10:20:50;3.40;99.90
27200;DHT22;14714;48.106;11.546;2023-03-01T10:23:18;3.40;99.90
27200;DHT22;14714;48.106;11.546;2023-03-01T10:28:20;3.50;99.90
27200;DHT22;14714;48.106;11.546;2023-03-01T10:30:51;3.60;99.90
27200;DHT22;14714;48.106;11.546;2023-03-01T10:35:45;3.80;99.90
27200;DHT22;14714;48.106;11.546;2023-03-01T10:38:12;3.90;99.90
27200;DHT22;14714;48.106;11.546;2023-03-01T10:41:04;4.10;99.90
27200;DHT22;14714;48.106;11.546;2023-03-01T10:43:50;3.90;99.90
27200;DHT22;14714;48.106;11.546;2023-03-01T10:46:25;4.00;99.90
27200;DHT22;14714;48.106;11.546;2023-03-01T10:51:38;4.40;99.90
27200;DHT22;14714;48.106;11.546;2023-03-01T10:54:06;4.60;99.90
27200;DHT22;14714;48.106;11.546;2023-03-01T10:56:48;4.80;99.90
27200;DHT22;14714;48.106;11.546;2023-03-01T10:59:35;4.90;99.90
27200;DHT22;14714;48.106;11.546;2023-03-01T11:07:23;5.60;99.90
27200;DHT22;14714;48.106;11.546;2023-03-01T11:09:50;5.80;99.90
27200;DHT22;14714;48.106;11.546;2023-03-01T11:12:16;5.90;99.90
27200;DHT22;14714;48.106;11.546;2023-03-01T11:14:47;5.90;99.90
27200;DHT22;14714;48.106;11.546;2023-03-01T11:19:40;5.90;99.90
27200;DHT22;14714;48.106;11.546;2023-03-01T11:22:18;6.00;99.90
27200;DHT22;14714;48.106;11.546;2023-03-01T11:24:47;6.00;99.90
27200;DHT22;14714;48.106;11.546;2023-03-01T11:27:31;6.10;99.90
27200;DHT22;14714;48.106;11.546;2023-03-01T11:30:00;6.30;99.90
27200;DHT22;14714;48.106;11.546;2023-03-01T11:32:38;6.50;99.90
27200;DHT22;14714;48.106;11.546;2023-03-01T11:35:10;6.70;99.70
27200;DHT22;14714;48.106;11.546;2023-03-01T11:37:46;6.60;98.50
27200;DHT22;14714;48.106;11.546;2023-03-01T11:40:23;6.60;99.70
27200;DHT22;14714;48.106;11.546;2023-03-01T11:45:21;6.90;98.90
27200;DHT22;14714;48.106;11.546;2023-03-01T11:47:53;6.90;97.60
27200;DHT22;14714;48.106;11.546;2023-03-01T11:50:30;6.80;98.40
27200;DHT22;14714;48.106;11.546;2023-03-01T11:53:07;6.70;97.80
27200;DHT22;14714;48.106;11.546;2023-03-01T11:55:56;6.60;98.30
27200;DHT22;14714;48.106;11.546;2023-03-01T12:01:16;6.40;98.70
27200;DHT22;14714;48.106;11.546;2023-03-01T12:09:06;6.10;99.70
27200;DHT22;14714;48.106;11.546;2023-03-01T12:11:46;6.10;98.90
27200;DHT22;14714;48.106;11.546;2023-03-01T12:17:00;6.10;99.60
27200;DHT22;14714;48.106;11.546;2023-03-01T12:41:12;5.90;99.90
27200;DHT22;14714;48.106;11.546;2023-03-01T12:49:26;5.50;99.90
27200;DHT22;14714;48.106;11.546;2023-03-01T12:51:32;5.60;99.90
27200;DHT22;14714;48.106;11.546;2023-03-01T12:54:19;5.60;99.90
27200;DHT22;14714;48.106;11.546;2023-03-01T12:56:47;5.60;99.90
27200;DHT22;14714;48.106;11.546;2023-03-01T13:01:51;5.40;99.90
27200;DHT22;14714;48.106;11.546;2023-03-01T13:07:20;5.40;99.90
27200;DHT22;14714;48.106;11.546;2023-03-01T13:15:16;5.50;99.90
27200;DHT22;14714;48.106;11.546;2023-03-01T13:17:55;5.50;99.90
27200;DHT22;14714;48.106;11.546;2023-03-01T13:20:27;5.50;99.90
27200;DHT22;14714;48.106;11.546;2023-03-01T13:23:13;5.60;99.90
27200;DHT22;14714;48.106;11.546;2023-03-01T13:31:03;5.70;99.90
27200;DHT22;14714;48.106;11.546;2023-03-01T13:35:57;5.60;99.90
27200;DHT22;14714;48.106;11.546;2023-03-01T13:38:38;5.60;99.90
27200;DHT22;14714;48.106;11.546;2023-03-01T13:41:07;5.70;99.90
27200;DHT22;14714;48.106;11.546;2023-03-01T13:43:35;5.70;99.90
27200;DHT22;14714;48.106;11.546;2023-03-01T13:46:07;5.70;99.90
27200;DHT22;14714;48.106;11.546;2023-03-01T13:48:34;5.60;99.90
27200;DHT22;14714;48.106;11.546;2023-03-01T13:51:02;5.70;99.90
27200;DHT22;14714;48.106;11.546;2023-03-01T13:53:30;5.70;99.90
27200;DHT22;14714;48.106;11.546;2023-03-01T13:56:02;5.70;99.90
27200;DHT22;14714;48.106;11.546;2023-03-01T13:58:30;5.80;99.90
27200;DHT22;14714;48.106;11.546;2023-03-01T14:00:58;5.80;99.90
27200;DHT22;14714;48.106;11.546;2023-03-01T14:03:26;5.70;99.90
27200;DHT22;14714;48.106;11.546;2023-03-01T14:08:41;5.70;99.90
27200;DHT22;14714;48.106;11.546;2023-03-01T14:21:43;5.80;99.90
27200;DHT22;14714;48.106;11.546;2023-03-01T14:24:22;5.70;99.90
27200;DHT22;14714;48.106;11.546;2023-03-01T14:26:49;5.70;99.90
27200;DHT22;14714;48.106;11.546;2023-03-01T14:29:53;5.60;99.90
27200;DHT22;14714;48.106;11.546;2023-03-01T14:34:36;5.60;99.90
27200;DHT22;14714;48.106;11.546;2023-03-01T14:39:44;5.60;99.90
27200;DHT22;14714;48.106;11.546;2023-03-01T14:42:11;5.60;99.90
27200;DHT22;14714;48.106;11.546;2023-03-01T14:44:42;5.70;99.90
27200;DHT22;14714;48.106;11.546;2023-03-01T14:47:11;5.60;99.90
27200;DHT22;14714;48.106;11.546;2023-03-01T14:49:38;5.60;99.90
27200;DHT22;14714;48.106;11.546;2023-03-01T14:52:18;5.70;99.90
27200;DHT22;14714;48.106;11.546;2023-03-01T14:54:50;5.70;99.90
27200;DHT22;14714;48.106;11.546;2023-03-01T14:57:22;5.70;99.90
27200;DHT22;14714;48.106;11.546;2023-03-01T14:59:49;5.70;99.90
27200;DHT22;14714;48.106;11.546;2023-03-01T15:02:18;5.70;99.90
27200;DHT22;14714;48.106;11.546;2023-03-01T15:04:46;5.80;99.90
27200;DHT22;14714;48.106;11.546;2023-03-01T15:07:13;5.80;99.90
27200;DHT22;14714;48.106;11.546;2023-03-01T15:09:40;5.80;99.90
27200;DHT22;14714;48.106;11.546;2023-03-01T15:14:53;5.80;99.90
27200;DHT22;14714;48.106;11.546;2023-03-01T15:17:36;5.90;99.90
27200;DHT22;14714;48.106;11.546;2023-03-01T15:20:04;5.90;99.90
27200;DHT22;14714;48.106;11.546;2023-03-01T15:22:32;5.90;99.90
27200;DHT22;14714;48.106;11.546;2023-03-01T15:24:58;5.90;99.90
27200;DHT22;14714;48.106;11.546;2023-03-01T15:27:25;5.90;99.90
27200;DHT22;14714;48.106;11.546;2023-03-01T15:30:00;5.90;99.90
27200;DHT22;14714;48.106;11.546;2023-03-01T15:32:33;5.90;99.90
27200;DHT22;14714;48.106;11.546;2023-03-01T15:35:01;5.90;99.90
27200;DHT22;14714;48.106;11.546;2023-03-01T15:37:44;5.90;99.90
27200;DHT22;14714;48.106;11.546;2023-03-01T15:40:32;5.90;99.90
27200;DHT22;14714;48.106;11.546;2023-03-01T15:42:59;5.90;99.90
27200;DHT22;14714;48.106;11.546;2023-03-01T15:45:27;5.90;99.90
27200;DHT22;14714;48.106;11.546;2023-03-01T15:47:55;5.90;99.90
27200;DHT22;14714;48.106;11.546;2023-03-01T15:52:54;5.90;99.90
27200;DHT22;14714;48.106;11.546;2023-03-01T15:55:25;5.90;99.90
27200;DHT22;14714;48.106;11.546;2023-03-01T15:58:03;5.90;99.90
27200;DHT22;14714;48.106;11.546;2023-03-01T16:00:32;5.90;99.90
27200;DHT22;14714;48.106;11.546;2023-03-01T16:02:59;5.90;99.90
27200;DHT22;14714;48.106;11.546;2023-03-01T16:05:30;5.80;99.90
27200;DHT22;14714;48.106;11.546;2023-03-01T16:07:57;5.80;99.90
27200;DHT22;14714;48.106;11.546;2023-03-01T16:10:24;5.80;99.90
27200;DHT22;14714;48.106;11.546;2023-03-01T16:12:51;5.70;99.90
27200;DHT22;14714;48.106;11.546;2023-03-01T16:17:45;5.70;99.90
27200;DHT22;14714;48.106;11.546;2023-03-01T16:20:12;5.70;99.90
27200;DHT22;14714;48.106;11.546;2023-03-01T16:22:53;5.60;99.90
27200;DHT22;14714;48.106;11.546;2023-03-01T16:25:20;5.60;99.90
27200;DHT22;14714;48.106;11.546;2023-03-01T16:27:48;5.50;99.90
27200;DHT22;14714;48.106;11.546;2023-03-01T16:30:16;5.50;99.90
27200;DHT22;14714;48.106;11.546;2023-03-01T16:32:44;5.50;99.90
27200;DHT22;14714;48.106;11.546;2023-03-01T16:35:12;5.40;99.90
27200;DHT22;14714;48.106;11.546;2023-03-01T16:37:39;5.40;99.90
27200;DHT22;14714;48.106;11.546;2023-03-01T16:40:07;5.40;99.90
27200;DHT22;14714;48.106;11.546;2023-03-01T16:42:37;5.30;99.90
27200;DHT22;14714;48.106;11.546;2023-03-01T16:45:07;5.30;99.90
27200;DHT22;14714;48.106;11.546;2023-03-01T16:47:48;5.20;99.90
27200;DHT22;14714;48.106;11.546;2023-03-01T16:50:15;5.20;99.90
27200;DHT22;14714;48.106;11.546;2023-03-01T16:52:41;5.10;99.90
27200;DHT22;14714;48.106;11.546;2023-03-01T16:55:08;5.10;99.90
27200;DHT22;14714;48.106;11.546;2023-03-01T16:57:36;5.10;99.90
27200;DHT22;14714;48.106;11.546;2023-03-01T17:00:04;5.00;99.90
27200;DHT22;14714;48.106;11.546;2023-03-01T17:02:34;5.00;99.90
27200;DHT22;14714;48.106;11.546;2023-03-01T17:05:01;4.90;99.90
27200;DHT22;14714;48.106;11.546;2023-03-01T17:07:29;4.80;99.90
27200;DHT22;14714;48.106;11.546;2023-03-01T17:10:00;4.70;99.90
27200;DHT22;14714;48.106;11.546;2023-03-01T17:12:26;4.50;99.90
27200;DHT22;14714;48.106;11.546;2023-03-01T17:14:54;4.40;99.90
27200;DHT22;14714;48.106;11.546;2023-03-01T17:17:21;4.30;99.90
27200;DHT22;14714;48.106;11.546;2023-03-01T17:19:47;4.20;99.90
27200;DHT22;14714;48.106;11.546;2023-03-01T17:22:14;4.10;99.90
27200;DHT22;14714;48.106;11.546;2023-03-01T17:24:41;4.00;99.90
27200;DHT22;14714;48.106;11.546;2023-03-01T17:27:09;3.90;99.90
27200;DHT22;14714;48.106;11.546;2023-03-01T17:29:37;3.80;99.90
27200;DHT22;14714;48.106;11.546;2023-03-01T17:32:04;3.70;99.90
27200;DHT22;14714;48.106;11.546;2023-03-01T17:34:31;3.60;99.90
27200;DHT22;14714;48.106;11.546;2023-03-01T17:36:58;3.50;99.90
27200;DHT22;14714;48.106;11.546;2023-03-01T17:39:25;3.40;99.90
27200;DHT22;14714;48.106;11.546;2023-03-01T17:41:58;3.30;99.90
27200;DHT22;14714;48.106;11.546;2023-03-01T17:44:24;3.30;99.90
27200;DHT22;14714;48.106;11.546;2023-03-01T17:46:51;3.20;99.90